sensor_id;sensor_type;location;lat;lon;timestamp;P1;durP1;ratioP1;P2;durP2;ratioP2
76023;SDS011;64719;52.124;6.226;2024-01-16T00:00:27;7.07;;;2.50;;
76023;SDS011;64719;52.124;6.226;2024-01-16T00:02:53;7.10;;;3.10;;
76023;SDS011;64719;52.124;6.226;2024-01-16T00:05:21;17.33;;;3.30;;
76023;SDS011;64719;52.124;6.226;2024-01-16T00:07:47;7.70;;;3.53;;
76023;SDS011;64719;52.124;6.226;2024-01-16T00:10:13;9.88;;;3.40;;
76023;SDS011;64719;52.124;6.226;2024-01-16T00:12:40;13.25;;;3.70;;
76023;SDS011;64719;52.124;6.226;2024-01-16T00:15:09;12.40;;;3.60;;
76023;SDS011;64719;52.124;6.226;2024-01-16T00:17:35;11.02;;;3.47;;
76023;SDS011;64719;52.124;6.226;2024-01-16T00:20:02;12.25;;;4.20;;
76023;SDS011;64719;52.124;6.226;2024-01-16T00:22:31;11.88;;;3.78;;
76023;SDS011;64719;52.124;6.226;2024-01-16T00:24:57;12.90;;;4.70;;
76023;SDS011;64719;52.124;6.226;2024-01-16T00:27:24;14.05;;;4.78;;
76023;SDS011;64719;52.124;6.226;2024-01-16T00:29:51;12.05;;;4.32;;
76023;SDS011;64719;52.124;6.226;2024-01-16T00:32:17;11.43;;;4.47;;
76023;SDS011;64719;52.124;6.226;2024-01-16T00:34:43;20.35;;;3.88;;
76023;SDS011;64719;52.124;6.226;2024-01-16T00:37:09;16.02;;;4.18;;
76023;SDS011;64719;52.124;6.226;2024-01-16T00:39:37;14.13;;;4.30;;
76023;SDS011;64719;52.124;6.226;2024-01-16T00:42:04;10.32;;;4.93;;
76023;SDS011;64719;52.124;6.226;2024-01-16T00:44:30;12.52;;;4.60;;
76023;SDS011;64719;52.124;6.226;2024-01-16T00:46:57;17.95;;;3.85;;
76023;SDS011;64719;52.124;6.226;2024-01-16T00:49:26;11.15;;;4.15;;
76023;SDS011;64719;52.124;6.226;2024-01-16T00:51:52;11.65;;;3.42;;
76023;SDS011;64719;52.124;6.226;2024-01-16T00:54:19;6.47;;;2.97;;
76023;SDS011;64719;52.124;6.226;2024-01-16T00:56:47;8.68;;;3.65;;
76023;SDS011;64719;52.124;6.226;2024-01-16T00:59:13;10.40;;;3.70;;
76023;SDS011;64719;52.124;6.226;2024-01-16T01:01:40;10.00;;;3.50;;
76023;SDS011;64719;52.124;6.226;2024-01-16T01:04:06;15.43;;;3.45;;
76023;SDS011;64719;52.124;6.226;2024-01-16T01:06:32;10.85;;;3.72;;
76023;SDS011;64719;52.124;6.226;2024-01-16T01:08:58;10.85;;;3.17;;
76023;SDS011;64719;52.124;6.226;2024-01-16T01:11:25;13.60;;;3.45;;
76023;SDS011;64719;52.124;6.226;2024-01-16T01:13:53;14.60;;;2.85;;
76023;SDS011;64719;52.124;6.226;2024-01-16T01:16:19;5.05;;;2.63;;
76023;SDS011;64719;52.124;6.226;2024-01-16T01:18:46;9.02;;;3.03;;
76023;SDS011;64719;52.124;6.226;2024-01-16T01:21:12;11.65;;;2.60;;
76023;SDS011;64719;52.124;6.226;2024-01-16T01:23:39;13.27;;;3.60;;
76023;SDS011;64719;52.124;6.226;2024-01-16T01:26:05;8.18;;;3.10;;
76023;SDS011;64719;52.124;6.226;2024-01-16T01:28:31;8.48;;;2.60;;
76023;SDS011;64719;52.124;6.226;2024-01-16T01:30:59;4.93;;;2.90;;
76023;SDS011;64719;52.124;6.226;2024-01-16T01:33:25;9.52;;;2.42;;
76023;SDS011;64719;52.124;6.226;2024-01-16T01:35:52;11.05;;;3.00;;
76023;SDS011;64719;52.124;6.226;2024-01-16T01:38:18;11.77;;;3.40;;
76023;SDS011;64719;52.124;6.226;2024-01-16T01:40:44;10.02;;;2.47;;
76023;SDS011;64719;52.124;6.226;2024-01-16T01:43:17;4.32;;;2.00;;
76023;SDS011;64719;52.124;6.226;2024-01-16T01:45:44;6.72;;;2.85;;
76023;SDS011;64719;52.124;6.226;2024-01-16T01:48:13;8.38;;;2.55;;
76023;SDS011;64719;52.124;6.226;2024-01-16T01:50:40;7.28;;;2.35;;
76023;SDS011;64719;52.124;6.226;2024-01-16T01:53:06;8.13;;;2.60;;
76023;SDS011;64719;52.124;6.226;2024-01-16T01:55:32;5.97;;;1.90;;
76023;SDS011;64719;52.124;6.226;2024-01-16T01:58:00;5.85;;;2.40;;
76023;SDS011;64719;52.124;6.226;2024-01-16T02:00:29;4.72;;;2.13;;
76023;SDS011;64719;52.124;6.226;2024-01-16T02:02:55;6.75;;;1.80;;
76023;SDS011;64719;52.124;6.226;2024-01-16T02:05:23;9.25;;;2.30;;
76023;SDS011;64719;52.124;6.226;2024-01-16T02:07:49;4.85;;;2.03;;
76023;SDS011;64719;52.124;6.226;2024-01-16T02:10:16;7.80;;;2.33;;
76023;SDS011;64719;52.124;6.226;2024-01-16T02:12:42;9.20;;;2.35;;
76023;SDS011;64719;52.124;6.226;2024-01-16T02:15:09;6.13;;;2.50;;
76023;SDS011;64719;52.124;6.226;2024-01-16T02:17:35;12.68;;;2.45;;
76023;SDS011;64719;52.124;6.226;2024-01-16T02:20:01;10.48;;;2.63;;
76023;SDS011;64719;52.124;6.226;2024-01-16T02:22:29;10.93;;;2.60;;
76023;SDS011;64719;52.124;6.226;2024-01-16T02:24:58;7.70;;;1.80;;
76023;SDS011;64719;52.124;6.226;2024-01-16T02:27:25;7.28;;;2.15;;
76023;SDS011;64719;52.124;6.226;2024-01-16T02:29:51;7.55;;;2.60;;
76023;SDS011;64719;52.124;6.226;2024-01-16T02:32:17;8.35;;;2.17;;
76023;SDS011;64719;52.124;6.226;2024-01-16T02:34:44;9.90;;;2.63;;
76023;SDS011;64719;52.124;6.226;2024-01-16T02:37:10;6.85;;;2.60;;
76023;SDS011;64719;52.124;6.226;2024-01-16T02:39:36;8.30;;;2.03;;
76023;SDS011;64719;52.124;6.226;2024-01-16T02:42:04;6.80;;;2.00;;
76023;SDS011;64719;52.124;6.226;2024-01-16T02:44:31;6.97;;;2.45;;
76023;SDS011;64719;52.124;6.226;2024-01-16T02:46:58;6.68;;;1.88;;
76023;SDS011;64719;52.124;6.226;2024-01-16T02:49:24;3.88;;;1.73;;
76023;SDS011;64719;52.124;6.226;2024-01-16T02:51:50;5.20;;;1.48;;
76023;SDS011;64719;52.124;6.226;2024-01-16T02:54:17;6.75;;;1.90;;
76023;SDS011;64719;52.124;6.226;2024-01-16T02:56:43;4.70;;;1.90;;
76023;SDS011;64719;52.124;6.226;2024-01-16T02:59:11;5.90;;;1.63;;
76023;SDS011;64719;52.124;6.226;2024-01-16T03:01:37;3.38;;;1.77;;
76023;SDS011;64719;52.124;6.226;2024-01-16T03:04:04;5.85;;;2.05;;
76023;SDS011;64719;52.124;6.226;2024-01-16T03:06:30;7.13;;;2.17;;
76023;SDS011;64719;52.124;6.226;2024-01-16T03:08:56;6.80;;;1.95;;
76023;SDS011;64719;52.124;6.226;2024-01-16T03:11:23;8.65;;;1.75;;
76023;SDS011;64719;52.124;6.226;2024-01-16T03:13:49;5.03;;;1.80;;
76023;SDS011;64719;52.124;6.226;2024-01-16T03:16:18;9.68;;;2.30;;
76023;SDS011;64719;52.124;6.226;2024-01-16T03:18:45;8.23;;;1.98;;
76023;SDS011;64719;52.124;6.226;2024-01-16T03:21:12;8.13;;;2.40;;
76023;SDS011;64719;52.124;6.226;2024-01-16T03:23:39;4.97;;;2.05;;
76023;SDS011;64719;52.124;6.226;2024-01-16T03:26:05;5.32;;;2.25;;
76023;SDS011;64719;52.124;6.226;2024-01-16T03:28:32;5.60;;;2.28;;
76023;SDS011;64719;52.124;6.226;2024-01-16T03:30:58;8.27;;;2.47;;
76023;SDS011;64719;52.124;6.226;2024-01-16T03:33:25;7.35;;;2.90;;
76023;SDS011;64719;52.124;6.226;2024-01-16T03:35:52;12.25;;;3.15;;
76023;SDS011;64719;52.124;6.226;2024-01-16T03:38:18;6.60;;;2.65;;
76023;SDS011;64719;52.124;6.226;2024-01-16T03:40:44;4.45;;;2.38;;
76023;SDS011;64719;52.124;6.226;2024-01-16T03:43:11;6.85;;;2.70;;
76023;SDS011;64719;52.124;6.226;2024-01-16T03:45:37;4.78;;;3.00;;
76023;SDS011;64719;52.124;6.226;2024-01-16T03:48:04;9.90;;;2.85;;
76023;SDS011;64719;52.124;6.226;2024-01-16T03:50:31;6.47;;;2.80;;
76023;SDS011;64719;52.124;6.226;2024-01-16T03:52:58;6.60;;;2.55;;
76023;SDS011;64719;52.124;6.226;2024-01-16T03:55:25;4.45;;;2.30;;
76023;SDS011;64719;52.124;6.226;2024-01-16T03:57:51;5.05;;;2.45;;
76023;SDS011;64719;52.124;6.226;2024-01-16T04:00:18;7.10;;;2.45;;
76023;SDS011;64719;52.124;6.226;2024-01-16T04:02:44;6.70;;;3.28;;
76023;SDS011;64719;52.124;6.226;2024-01-16T04:05:11;11.00;;;2.80;;
76023;SDS011;64719;52.124;6.226;2024-01-16T04:07:38;5.68;;;2.83;;
76023;SDS011;64719;52.124;6.226;2024-01-16T04:10:06;3.88;;;1.85;;
76023;SDS011;64719;52.124;6.226;2024-01-16T04:12:32;8.32;;;2.08;;
76023;SDS011;64719;52.124;6.226;2024-01-16T04:14:58;8.20;;;1.60;;
76023;SDS011;64719;52.124;6.226;2024-01-16T04:17:25;7.72;;;2.42;;
76023;SDS011;64719;52.124;6.226;2024-01-16T04:19:51;5.18;;;1.90;;
76023;SDS011;64719;52.124;6.226;2024-01-16T04:22:18;5.35;;;1.95;;
76023;SDS011;64719;52.124;6.226;2024-01-16T04:24:45;4.00;;;2.22;;
76023;SDS011;64719;52.124;6.226;2024-01-16T04:27:12;5.68;;;2.13;;
76023;SDS011;64719;52.124;6.226;2024-01-16T04:29:39;7.65;;;1.75;;
76023;SDS011;64719;52.124;6.226;2024-01-16T04:32:05;5.35;;;1.80;;
76023;SDS011;64719;52.124;6.226;2024-01-16T04:34:31;7.10;;;1.80;;
76023;SDS011;64719;52.124;6.226;2024-01-16T04:36:58;4.20;;;1.58;;
76023;SDS011;64719;52.124;6.226;2024-01-16T04:39:24;6.95;;;1.58;;
76023;SDS011;64719;52.124;6.226;2024-01-16T04:41:52;3.17;;;1.90;;
76023;SDS011;64719;52.124;6.226;2024-01-16T04:44:18;5.55;;;2.30;;
76023;SDS011;64719;52.124;6.226;2024-01-16T04:46:44;6.50;;;2.47;;
76023;SDS011;64719;52.124;6.226;2024-01-16T04:49:11;4.78;;;2.30;;
76023;SDS011;64719;52.124;6.226;2024-01-16T04:51:37;9.10;;;1.88;;
76023;SDS011;64719;52.124;6.226;2024-01-16T04:54:03;11.65;;;2.53;;
76023;SDS011;64719;52.124;6.226;2024-01-16T04:56:30;5.00;;;2.45;;
76023;SDS011;64719;52.124;6.226;2024-01-16T04:58:57;7.60;;;2.38;;
76023;SDS011;64719;52.124;6.226;2024-01-16T05:01:24;4.53;;;1.55;;
76023;SDS011;64719;52.124;6.226;2024-01-16T05:03:51;4.68;;;1.95;;
76023;SDS011;64719;52.124;6.226;2024-01-16T05:06:17;4.22;;;1.70;;
76023;SDS011;64719;52.124;6.226;2024-01-16T05:08:43;2.65;;;1.05;;
76023;SDS011;64719;52.124;6.226;2024-01-16T05:11:10;4.07;;;1.70;;
76023;SDS011;64719;52.124;6.226;2024-01-16T05:13:36;3.33;;;0.98;;
76023;SDS011;64719;52.124;6.226;2024-01-16T05:16:04;5.80;;;1.17;;
76023;SDS011;64719;52.124;6.226;2024-01-16T05:18:30;2.88;;;1.33;;
76023;SDS011;64719;52.124;6.226;2024-01-16T05:20:57;2.08;;;1.08;;
76023;SDS011;64719;52.124;6.226;2024-01-16T05:23:24;2.00;;;1.17;;
76023;SDS011;64719;52.124;6.226;2024-01-16T05:25:50;2.88;;;1.00;;
76023;SDS011;64719;52.124;6.226;2024-01-16T05:28:16;2.95;;;0.90;;
76023;SDS011;64719;52.124;6.226;2024-01-16T05:30:42;1.38;;;0.68;;
76023;SDS011;64719;52.124;6.226;2024-01-16T05:33:10;2.88;;;1.02;;
76023;SDS011;64719;52.124;6.226;2024-01-16T05:35:36;1.17;;;0.60;;
76023;SDS011;64719;52.124;6.226;2024-01-16T05:38:05;5.10;;;1.25;;
76023;SDS011;64719;52.124;6.226;2024-01-16T05:40:31;3.63;;;1.58;;
76023;SDS011;64719;52.124;6.226;2024-01-16T05:42:58;4.57;;;1.48;;
76023;SDS011;64719;52.124;6.226;2024-01-16T05:45:24;4.78;;;1.80;;
76023;SDS011;64719;52.124;6.226;2024-01-16T05:47:50;5.95;;;1.88;;
76023;SDS011;64719;52.124;6.226;2024-01-16T05:50:18;5.35;;;2.20;;
76023;SDS011;64719;52.124;6.226;2024-01-16T05:52:44;4.05;;;2.28;;
76023;SDS011;64719;52.124;6.226;2024-01-16T05:55:11;6.13;;;2.22;;
76023;SDS011;64719;52.124;6.226;2024-01-16T05:57:37;7.05;;;3.25;;
76023;SDS011;64719;52.124;6.226;2024-01-16T06:00:04;8.90;;;3.05;;
76023;SDS011;64719;52.124;6.226;2024-01-16T06:02:31;7.60;;;3.53;;
76023;SDS011;64719;52.124;6.226;2024-01-16T06:04:57;10.68;;;3.40;;
76023;SDS011;64719;52.124;6.226;2024-01-16T06:07:25;7.22;;;3.20;;
76023;SDS011;64719;52.124;6.226;2024-01-16T06:09:51;8.15;;;3.20;;
76023;SDS011;64719;52.124;6.226;2024-01-16T06:12:17;13.13;;;4.03;;
76023;SDS011;64719;52.124;6.226;2024-01-16T06:14:43;8.30;;;3.60;;
76023;SDS011;64719;52.124;6.226;2024-01-16T06:17:10;10.07;;;4.18;;
76023;SDS011;64719;52.124;6.226;2024-01-16T06:19:36;8.77;;;3.58;;
76023;SDS011;64719;52.124;6.226;2024-01-16T06:22:02;9.20;;;3.92;;
76023;SDS011;64719;52.124;6.226;2024-01-16T06:24:30;12.65;;;4.35;;
76023;SDS011;64719;52.124;6.226;2024-01-16T06:27:01;10.93;;;5.03;;
76023;SDS011;64719;52.124;6.226;2024-01-16T06:29:28;11.55;;;4.45;;
76023;SDS011;64719;52.124;6.226;2024-01-16T06:31:55;13.02;;;5.18;;
76023;SDS011;64719;52.124;6.226;2024-01-16T06:34:21;11.27;;;4.43;;
76023;SDS011;64719;52.124;6.226;2024-01-16T06:36:47;13.13;;;4.80;;
76023;SDS011;64719;52.124;6.226;2024-01-16T06:39:14;10.38;;;4.70;;
76023;SDS011;64719;52.124;6.226;2024-01-16T06:41:42;10.63;;;4.85;;
76023;SDS011;64719;52.124;6.226;2024-01-16T06:44:08;12.82;;;4.38;;
76023;SDS011;64719;52.124;6.226;2024-01-16T06:46:35;11.65;;;5.10;;
76023;SDS011;64719;52.124;6.226;2024-01-16T06:49:01;12.68;;;4.72;;
76023;SDS011;64719;52.124;6.226;2024-01-16T06:51:27;10.45;;;5.10;;
76023;SDS011;64719;52.124;6.226;2024-01-16T06:53:54;9.38;;;4.43;;
76023;SDS011;64719;52.124;6.226;2024-01-16T06:56:20;8.13;;;4.38;;
76023;SDS011;64719;52.124;6.226;2024-01-16T06:58:48;9.15;;;5.30;;
76023;SDS011;64719;52.124;6.226;2024-01-16T07:01:14;12.05;;;4.95;;
76023;SDS011;64719;52.124;6.226;2024-01-16T07:03:40;9.75;;;5.20;;
76023;SDS011;64719;52.124;6.226;2024-01-16T07:06:07;11.93;;;5.00;;
76023;SDS011;64719;52.124;6.226;2024-01-16T07:08:33;8.95;;;4.20;;
76023;SDS011;64719;52.124;6.226;2024-01-16T07:11:00;9.60;;;4.63;;
76023;SDS011;64719;52.124;6.226;2024-01-16T07:13:27;11.20;;;4.72;;
76023;SDS011;64719;52.124;6.226;2024-01-16T07:15:54;13.52;;;4.85;;
76023;SDS011;64719;52.124;6.226;2024-01-16T07:18:21;13.32;;;4.55;;
76023;SDS011;64719;52.124;6.226;2024-01-16T07:20:47;16.67;;;4.50;;
76023;SDS011;64719;52.124;6.226;2024-01-16T07:23:13;10.90;;;4.35;;
76023;SDS011;64719;52.124;6.226;2024-01-16T07:25:40;15.35;;;5.05;;
76023;SDS011;64719;52.124;6.226;2024-01-16T07:28:06;10.68;;;4.57;;
76023;SDS011;64719;52.124;6.226;2024-01-16T07:30:33;12.13;;;4.40;;
76023;SDS011;64719;52.124;6.226;2024-01-16T07:33:01;7.65;;;3.83;;
76023;SDS011;64719;52.124;6.226;2024-01-16T07:35:28;10.75;;;4.25;;
76023;SDS011;64719;52.124;6.226;2024-01-16T07:37:54;11.73;;;4.00;;
76023;SDS011;64719;52.124;6.226;2024-01-16T07:40:20;13.25;;;4.70;;
76023;SDS011;64719;52.124;6.226;2024-01-16T07:42:48;11.02;;;4.13;;
76023;SDS011;64719;52.124;6.226;2024-01-16T07:45:15;9.40;;;3.95;;
76023;SDS011;64719;52.124;6.226;2024-01-16T07:47:41;8.70;;;4.35;;
76023;SDS011;64719;52.124;6.226;2024-01-16T07:50:09;10.10;;;4.35;;
76023;SDS011;64719;52.124;6.226;2024-01-16T07:52:36;9.25;;;3.88;;
76023;SDS011;64719;52.124;6.226;2024-01-16T07:55:02;10.63;;;4.43;;
76023;SDS011;64719;52.124;6.226;2024-01-16T07:57:29;8.50;;;4.15;;
76023;SDS011;64719;52.124;6.226;2024-01-16T07:59:55;9.73;;;4.35;;
76023;SDS011;64719;52.124;6.226;2024-01-16T08:02:22;8.00;;;4.05;;
76023;SDS011;64719;52.124;6.226;2024-01-16T08:04:48;13.35;;;4.85;;
76023;SDS011;64719;52.124;6.226;2024-01-16T08:07:16;9.43;;;4.28;;
76023;SDS011;64719;52.124;6.226;2024-01-16T08:09:42;7.53;;;3.90;;
76023;SDS011;64719;52.124;6.226;2024-01-16T08:12:09;11.35;;;3.85;;
76023;SDS011;64719;52.124;6.226;2024-01-16T08:14:35;14.27;;;4.13;;
76023;SDS011;64719;52.124;6.226;2024-01-16T08:17:02;10.02;;;4.45;;
76023;SDS011;64719;52.124;6.226;2024-01-16T08:19:28;12.43;;;5.03;;
76023;SDS011;64719;52.124;6.226;2024-01-16T08:21:55;13.43;;;4.85;;
76023;SDS011;64719;52.124;6.226;2024-01-16T08:24:22;10.45;;;4.78;;
76023;SDS011;64719;52.124;6.226;2024-01-16T08:26:49;14.80;;;5.15;;
76023;SDS011;64719;52.124;6.226;2024-01-16T08:29:15;10.13;;;4.32;;
76023;SDS011;64719;52.124;6.226;2024-01-16T08:31:41;15.02;;;4.45;;
76023;SDS011;64719;52.124;6.226;2024-01-16T08:34:08;11.10;;;4.50;;
76023;SDS011;64719;52.124;6.226;2024-01-16T08:36:34;10.20;;;4.35;;
76023;SDS011;64719;52.124;6.226;2024-01-16T08:39:00;12.02;;;4.93;;
76023;SDS011;64719;52.124;6.226;2024-01-16T08:41:28;10.65;;;4.68;;
76023;SDS011;64719;52.124;6.226;2024-01-16T08:43:54;13.75;;;5.55;;
76023;SDS011;64719;52.124;6.226;2024-01-16T08:46:21;11.20;;;5.18;;
76023;SDS011;64719;52.124;6.226;2024-01-16T08:48:47;11.05;;;6.22;;
76023;SDS011;64719;52.124;6.226;2024-01-16T08:51:14;15.32;;;6.70;;
76023;SDS011;64719;52.124;6.226;2024-01-16T08:53:40;16.83;;;6.18;;
76023;SDS011;64719;52.124;6.226;2024-01-16T08:56:07;11.30;;;6.13;;
76023;SDS011;64719;52.124;6.226;2024-01-16T08:58:35;16.20;;;6.38;;
76023;SDS011;64719;52.124;6.226;2024-01-16T09:01:02;12.80;;;5.95;;
76023;SDS011;64719;52.124;6.226;2024-01-16T09:03:30;18.25;;;6.65;;
76023;SDS011;64719;52.124;6.226;2024-01-16T09:05:56;17.30;;;6.25;;
76023;SDS011;64719;52.124;6.226;2024-01-16T09:08:22;15.88;;;7.35;;
76023;SDS011;64719;52.124;6.226;2024-01-16T09:10:49;12.77;;;6.57;;
76023;SDS011;64719;52.124;6.226;2024-01-16T09:13:15;16.42;;;7.22;;
76023;SDS011;64719;52.124;6.226;2024-01-16T09:15:43;18.63;;;8.05;;
76023;SDS011;64719;52.124;6.226;2024-01-16T09:18:10;20.27;;;6.47;;
76023;SDS011;64719;52.124;6.226;2024-01-16T09:20:36;15.35;;;6.65;;
76023;SDS011;64719;52.124;6.226;2024-01-16T09:23:03;16.80;;;7.45;;
76023;SDS011;64719;52.124;6.226;2024-01-16T09:25:29;17.15;;;7.65;;
76023;SDS011;64719;52.124;6.226;2024-01-16T09:27:55;14.70;;;7.05;;
76023;SDS011;64719;52.124;6.226;2024-01-16T09:30:22;11.68;;;6.97;;
76023;SDS011;64719;52.124;6.226;2024-01-16T09:32:49;11.60;;;7.45;;
76023;SDS011;64719;52.124;6.226;2024-01-16T09:35:16;16.80;;;7.57;;
76023;SDS011;64719;52.124;6.226;2024-01-16T09:37:42;13.23;;;7.13;;
76023;SDS011;64719;52.124;6.226;2024-01-16T09:40:09;15.65;;;7.07;;
76023;SDS011;64719;52.124;6.226;2024-01-16T09:42:36;11.15;;;7.75;;
76023;SDS011;64719;52.124;6.226;2024-01-16T09:45:02;17.23;;;7.07;;
76023;SDS011;64719;52.124;6.226;2024-01-16T09:47:30;13.20;;;8.43;;
76023;SDS011;64719;52.124;6.226;2024-01-16T09:49:58;11.88;;;6.70;;
76023;SDS011;64719;52.124;6.226;2024-01-16T09:52:25;13.30;;;6.78;;
76023;SDS011;64719;52.124;6.226;2024-01-16T09:54:51;11.05;;;6.30;;
76023;SDS011;64719;52.124;6.226;2024-01-16T09:57:18;10.00;;;5.22;;
76023;SDS011;64719;52.124;6.226;2024-01-16T09:59:45;11.38;;;5.47;;
76023;SDS011;64719;52.124;6.226;2024-01-16T10:02:12;11.23;;;5.50;;
76023;SDS011;64719;52.124;6.226;2024-01-16T10:04:39;10.25;;;5.65;;
76023;SDS011;64719;52.124;6.226;2024-01-16T10:07:07;11.10;;;6.20;;
76023;SDS011;64719;52.124;6.226;2024-01-16T10:09:34;13.88;;;6.50;;
76023;SDS011;64719;52.124;6.226;2024-01-16T10:12:00;11.43;;;6.53;;
76023;SDS011;64719;52.124;6.226;2024-01-16T10:14:27;10.52;;;6.13;;
76023;SDS011;64719;52.124;6.226;2024-01-16T10:16:54;13.60;;;6.53;;
76023;SDS011;64719;52.124;6.226;2024-01-16T10:19:21;8.07;;;5.90;;
76023;SDS011;64719;52.124;6.226;2024-01-16T10:21:47;14.07;;;6.55;;
76023;SDS011;64719;52.124;6.226;2024-01-16T10:24:15;10.38;;;5.85;;
76023;SDS011;64719;52.124;6.226;2024-01-16T10:26:41;13.15;;;5.43;;
76023;SDS011;64719;52.124;6.226;2024-01-16T10:29:08;9.30;;;4.70;;
76023;SDS011;64719;52.124;6.226;2024-01-16T10:31:34;9.90;;;4.55;;
76023;SDS011;64719;52.124;6.226;2024-01-16T10:34:03;5.68;;;3.83;;
76023;SDS011;64719;52.124;6.226;2024-01-16T10:39:10;8.02;;;4.13;;
76023;SDS011;64719;52.124;6.226;2024-01-16T10:41:38;9.13;;;4.15;;
76023;SDS011;64719;52.124;6.226;2024-01-16T10:44:05;6.32;;;3.30;;
76023;SDS011;64719;52.124;6.226;2024-01-16T10:46:32;7.88;;;3.55;;
76023;SDS011;64719;52.124;6.226;2024-01-16T10:48:59;7.68;;;3.00;;
76023;SDS011;64719;52.124;6.226;2024-01-16T10:51:26;6.95;;;2.97;;
76023;SDS011;64719;52.124;6.226;2024-01-16T10:53:54;6.32;;;3.30;;
76023;SDS011;64719;52.124;6.226;2024-01-16T10:56:23;6.45;;;3.35;;
76023;SDS011;64719;52.124;6.226;2024-01-16T10:58:54;7.47;;;3.40;;
76023;SDS011;64719;52.124;6.226;2024-01-16T11:01:23;5.53;;;3.08;;
76023;SDS011;64719;52.124;6.226;2024-01-16T11:03:50;9.52;;;3.50;;
76023;SDS011;64719;52.124;6.226;2024-01-16T11:06:18;8.98;;;3.28;;
76023;SDS011;64719;52.124;6.226;2024-01-16T11:08:45;7.05;;;3.08;;
76023;SDS011;64719;52.124;6.226;2024-01-16T11:11:11;5.03;;;2.83;;
76023;SDS011;64719;52.124;6.226;2024-01-16T11:13:39;9.80;;;2.92;;
76023;SDS011;64719;52.124;6.226;2024-01-16T11:16:07;6.10;;;2.92;;
76023;SDS011;64719;52.124;6.226;2024-01-16T11:18:34;7.72;;;3.25;;
76023;SDS011;64719;52.124;6.226;2024-01-16T11:21:01;7.00;;;2.63;;
76023;SDS011;64719;52.124;6.226;2024-01-16T11:23:28;7.63;;;3.28;;
76023;SDS011;64719;52.124;6.226;2024-01-16T11:25:55;4.57;;;2.60;;
76023;SDS011;64719;52.124;6.226;2024-01-16T11:28:21;14.75;;;3.25;;
76023;SDS011;64719;52.124;6.226;2024-01-16T11:30:52;7.55;;;3.10;;
76023;SDS011;64719;52.124;6.226;2024-01-16T11:36:05;6.88;;;3.30;;
76023;SDS011;64719;52.124;6.226;2024-01-16T11:38:55;4.43;;;2.50;;
76023;SDS011;64719;52.124;6.226;2024-01-16T11:44:03;10.85;;;3.08;;
76023;SDS011;64719;52.124;6.226;2024-01-16T11:46:38;7.18;;;2.65;;
76023;SDS011;64719;52.124;6.226;2024-01-16T11:49:25;4.05;;;2.33;;
76023;SDS011;64719;52.124;6.226;2024-01-16T11:51:53;7.40;;;2.08;;
76023;SDS011;64719;52.124;6.226;2024-01-16T11:54:19;4.68;;;2.55;;
76023;SDS011;64719;52.124;6.226;2024-01-16T11:56:55;4.50;;;2.60;;
76023;SDS011;64719;52.124;6.226;2024-01-16T12:02:10;4.22;;;2.60;;
76023;SDS011;64719;52.124;6.226;2024-01-16T12:04:38;6.20;;;2.78;;
76023;SDS011;64719;52.124;6.226;2024-01-16T12:07:05;6.70;;;3.13;;
76023;SDS011;64719;52.124;6.226;2024-01-16T12:09:32;4.32;;;2.55;;
76023;SDS011;64719;52.124;6.226;2024-01-16T12:11:59;8.68;;;3.40;;
76023;SDS011;64719;52.124;6.226;2024-01-16T12:14:26;5.18;;;2.72;;
76023;SDS011;64719;52.124;6.226;2024-01-16T12:16:52;5.88;;;2.47;;
76023;SDS011;64719;52.124;6.226;2024-01-16T12:19:19;5.90;;;2.60;;
76023;SDS011;64719;52.124;6.226;2024-01-16T12:21:45;6.65;;;2.80;;
76023;SDS011;64719;52.124;6.226;2024-01-16T12:24:13;6.78;;;2.92;;
76023;SDS011;64719;52.124;6.226;2024-01-16T12:26:39;8.40;;;2.53;;
76023;SDS011;64719;52.124;6.226;2024-01-16T12:29:06;4.15;;;2.15;;
76023;SDS011;64719;52.124;6.226;2024-01-16T12:31:33;6.13;;;2.67;;
76023;SDS011;64719;52.124;6.226;2024-01-16T12:34:05;6.32;;;2.42;;
76023;SDS011;64719;52.124;6.226;2024-01-16T12:36:32;7.07;;;2.38;;
76023;SDS011;64719;52.124;6.226;2024-01-16T12:38:59;6.60;;;2.17;;
76023;SDS011;64719;52.124;6.226;2024-01-16T12:41:27;8.77;;;2.45;;
76023;SDS011;64719;52.124;6.226;2024-01-16T12:43:54;3.80;;;2.38;;
76023;SDS011;64719;52.124;6.226;2024-01-16T12:46:20;3.85;;;2.20;;
76023;SDS011;64719;52.124;6.226;2024-01-16T12:48:47;5.28;;;2.10;;
76023;SDS011;64719;52.124;6.226;2024-01-16T12:51:19;5.10;;;2.15;;
76023;SDS011;64719;52.124;6.226;2024-01-16T12:53:46;5.63;;;2.17;;
76023;SDS011;64719;52.124;6.226;2024-01-16T12:56:12;5.78;;;2.15;;
76023;SDS011;64719;52.124;6.226;2024-01-16T12:58:40;5.43;;;2.47;;
76023;SDS011;64719;52.124;6.226;2024-01-16T13:01:22;4.18;;;2.03;;
76023;SDS011;64719;52.124;6.226;2024-01-16T13:03:49;4.65;;;2.22;;
76023;SDS011;64719;52.124;6.226;2024-01-16T13:06:16;5.72;;;2.30;;
76023;SDS011;64719;52.124;6.226;2024-01-16T13:08:44;5.15;;;2.17;;
76023;SDS011;64719;52.124;6.226;2024-01-16T13:11:11;5.93;;;2.45;;
76023;SDS011;64719;52.124;6.226;2024-01-16T13:13:42;7.43;;;2.67;;
76023;SDS011;64719;52.124;6.226;2024-01-16T13:16:08;7.03;;;2.88;;
76023;SDS011;64719;52.124;6.226;2024-01-16T13:18:34;5.95;;;2.28;;
76023;SDS011;64719;52.124;6.226;2024-01-16T13:21:01;4.88;;;1.88;;
76023;SDS011;64719;52.124;6.226;2024-01-16T13:23:27;5.70;;;2.30;;
76023;SDS011;64719;52.124;6.226;2024-01-16T13:25:54;6.45;;;2.20;;
76023;SDS011;64719;52.124;6.226;2024-01-16T13:28:22;3.22;;;2.15;;
76023;SDS011;64719;52.124;6.226;2024-01-16T13:30:51;5.32;;;2.88;;
76023;SDS011;64719;52.124;6.226;2024-01-16T13:33:17;4.95;;;2.40;;
76023;SDS011;64719;52.124;6.226;2024-01-16T13:35:44;5.38;;;2.15;;
76023;SDS011;64719;52.124;6.226;2024-01-16T13:38:11;7.68;;;2.63;;
76023;SDS011;64719;52.124;6.226;2024-01-16T13:40:38;5.70;;;2.28;;
76023;SDS011;64719;52.124;6.226;2024-01-16T13:43:05;5.50;;;2.20;;
76023;SDS011;64719;52.124;6.226;2024-01-16T13:45:32;3.78;;;2.08;;
76023;SDS011;64719;52.124;6.226;2024-01-16T13:48:02;7.38;;;2.78;;
76023;SDS011;64719;52.124;6.226;2024-01-16T13:50:30;6.85;;;2.45;;
76023;SDS011;64719;52.124;6.226;2024-01-16T13:52:57;4.80;;;2.08;;
76023;SDS011;64719;52.124;6.226;2024-01-16T13:55:23;7.20;;;2.15;;
76023;SDS011;64719;52.124;6.226;2024-01-16T13:57:50;6.03;;;2.85;;
76023;SDS011;64719;52.124;6.226;2024-01-16T14:00:16;9.15;;;2.33;;
76023;SDS011;64719;52.124;6.226;2024-01-16T14:02:43;6.22;;;2.30;;
76023;SDS011;64719;52.124;6.226;2024-01-16T14:05:12;5.65;;;2.70;;
76023;SDS011;64719;52.124;6.226;2024-01-16T14:07:40;4.18;;;2.22;;
76023;SDS011;64719;52.124;6.226;2024-01-16T14:10:07;4.65;;;2.20;;
76023;SDS011;64719;52.124;6.226;2024-01-16T14:12:34;6.40;;;2.67;;
76023;SDS011;64719;52.124;6.226;2024-01-16T14:15:02;4.38;;;2.22;;
76023;SDS011;64719;52.124;6.226;2024-01-16T14:17:29;5.80;;;2.70;;
76023;SDS011;64719;52.124;6.226;2024-01-16T14:19:55;8.50;;;2.20;;
76023;SDS011;64719;52.124;6.226;2024-01-16T14:22:23;6.78;;;2.70;;
76023;SDS011;64719;52.124;6.226;2024-01-16T14:24:51;7.25;;;3.47;;
76023;SDS011;64719;52.124;6.226;2024-01-16T14:27:17;12.50;;;3.85;;
76023;SDS011;64719;52.124;6.226;2024-01-16T14:29:43;11.40;;;4.00;;
76023;SDS011;64719;52.124;6.226;2024-01-16T14:32:10;5.47;;;3.08;;
76023;SDS011;64719;52.124;6.226;2024-01-16T14:34:36;6.13;;;2.95;;
76023;SDS011;64719;52.124;6.226;2024-01-16T14:37:03;5.07;;;3.10;;
76023;SDS011;64719;52.124;6.226;2024-01-16T14:39:31;6.63;;;3.00;;
76023;SDS011;64719;52.124;6.226;2024-01-16T14:41:58;8.75;;;4.53;;
76023;SDS011;64719;52.124;6.226;2024-01-16T14:44:24;4.28;;;2.20;;
76023;SDS011;64719;52.124;6.226;2024-01-16T14:46:50;5.63;;;2.65;;
76023;SDS011;64719;52.124;6.226;2024-01-16T14:49:19;6.95;;;3.67;;
76023;SDS011;64719;52.124;6.226;2024-01-16T14:51:46;17.48;;;7.32;;